首页
METAR-TAF:

METAR-TAF

机场 :

Felker Army Airfield

Fort Eustis, 弗吉尼亚州, 美国

纬度: 37-08N, 经度: 076-37W, 海拔: 4米

当前天气观测

该预报发布于11分钟前的05:06 UTC
静风
温度 10°C
湿度 93%
气压 1010 hPa
能見度: 0.8公里
天空无云

METAR: KFAF 260506Z AUTO 00000KT 1/2SM FG CLR 10/09 A2982 RMK AO2 SLPNO RVRNO $

时间: 00:17 (05:17 UTC)

预报

该预报发布于8小时和2分钟前的21:15 UTC
预报有效从25日的 21点(UTC)到 27日的 01点(UTC)
风速6节,风向多变
能见度10公里或以上
多云层高于1500英尺
阴天层高于2000英尺
成为
从 26日的 02点(UTC)到 26日的 03点(UTC)
风速6节,风向多变
能見度: 4800
散云层高于900英尺
多云层高于1000英尺
轻雾
成为
从 26日的 12点(UTC)到 26日的 13点(UTC)
风速6节,风向南转南东
能见度10公里或以上
散云层高于700英尺
多云层高于1000英尺
成为
从 26日的 22点(UTC)到 26日的 23点(UTC)
风速6节,风向多变
能見度: 2611
多云层高于300英尺
阴天层高于1000英尺
小阵雨

TAF: KFAF 252115Z 2521/2701 VRB06KT 9999 BKN015 OVC020 QNH2974INS BECMG 2602/2603 VRB06KT 4800 BR SCT009 BKN010 QNH2981INS BECMG 2612/2613 16006KT 9999 NSW SCT007 BKN010 QNH2964INS BECMG 2622/2623 VRB06KT 6000 -SHRA BKN003 OVC010 QNH2956INS TX16/2521Z TN10/2611Z LAST NO AMDS AFT 2604 NEXT 2611

超过4000个机场的气象观测和天气预报(METAR&TAF报告)。

可查询的气象台以黄色和红色小点在地图上表示。

将鼠标移到小点上方,可查看气象台名称。

然后点击查看天气观测和预报。

如需切换地图:点击带黑十字的绿色按钮放大地图;点击带横线的绿色按钮缩小地图;或者点击绿色箭头查看邻近地区的地图。


METAR-TAF: